sensor_id;sensor_type;location;lat;lon;timestamp;pressure;altitude;pressure_sealevel;temperature;humidity
8280;BME280;8335;42.646;23.380;2023-07-31T00:01:08;147025.81;;;22.11;83.48
8280;BME280;8335;42.646;23.380;2023-07-31T00:03:34;147030.81;;;22.13;83.80
8280;BME280;8335;42.646;23.380;2023-07-31T00:06:01;147045.88;;;22.19;84.29
8280;BME280;8335;42.646;23.380;2023-07-31T00:08:29;147050.88;;;22.21;83.95
8280;BME280;8335;42.646;23.380;2023-07-31T00:10:56;147039.63;;;22.16;83.12
8280;BME280;8335;42.646;23.380;2023-07-31T00:13:23;147047.13;;;22.19;83.35
8280;BME280;8335;42.646;23.380;2023-07-31T00:15:49;147045.88;;;22.19;83.90
8280;BME280;8335;42.646;23.380;2023-07-31T00:18:16;147053.44;;;22.22;84.19
8280;BME280;8335;42.646;23.380;2023-07-31T00:20:43;147064.69;;;22.27;83.72
8280;BME280;8335;42.646;23.380;2023-07-31T00:23:10;147063.44;;;22.26;83.37
8280;BME280;8335;42.646;23.380;2023-07-31T00:25:38;147059.69;;;22.24;83.21
8280;BME280;8335;42.646;23.380;2023-07-31T00:28:05;147060.94;;;22.25;83.46
8280;BME280;8335;42.646;23.380;2023-07-31T00:30:31;147039.63;;;22.16;85.92
8280;BME280;8335;42.646;23.380;2023-07-31T00:32:58;146998.16;;;21.99;86.67
8280;BME280;8335;42.646;23.380;2023-07-31T00:35:25;146974.38;;;21.90;88.26
8280;BME280;8335;42.646;23.380;2023-07-31T00:37:52;146960.56;;;21.84;88.88
8280;BME280;8335;42.646;23.380;2023-07-31T00:40:18;146953.06;;;21.81;89.26
8280;BME280;8335;42.646;23.380;2023-07-31T00:42:47;146980.63;;;21.92;88.11
8280;BME280;8335;42.646;23.380;2023-07-31T00:45:13;146976.88;;;21.91;88.15
8280;BME280;8335;42.646;23.380;2023-07-31T00:47:40;146980.63;;;21.92;87.55
8280;BME280;8335;42.646;23.380;2023-07-31T00:50:07;146939.25;;;21.76;88.74
8280;BME280;8335;42.646;23.380;2023-07-31T00:52:35;146969.38;;;21.88;89.07
8280;BME280;8335;42.646;23.380;2023-07-31T00:55:03;146963.06;;;21.85;89.12
8280;BME280;8335;42.646;23.380;2023-07-31T00:57:32;146955.56;;;21.82;89.13
8280;BME280;8335;42.646;23.380;2023-07-31T01:00:00;146940.50;;;21.76;89.52
8280;BME280;8335;42.646;23.380;2023-07-31T01:02:28;146912.97;;;21.65;90.57
8280;BME280;8335;42.646;23.380;2023-07-31T01:04:55;146911.66;;;21.64;90.63
8280;BME280;8335;42.646;23.380;2023-07-31T01:07:27;146917.97;;;21.67;90.97
8280;BME280;8335;42.646;23.380;2023-07-31T01:10:03;146906.66;;;21.62;90.93
8280;BME280;8335;42.646;23.380;2023-07-31T01:12:31;146900.41;;;21.60;90.98
8280;BME280;8335;42.646;23.380;2023-07-31T01:15:07;146882.84;;;21.53;92.52
8280;BME280;8335;42.646;23.380;2023-07-31T01:17:36;146872.81;;;21.49;92.69
8280;BME280;8335;42.646;23.380;2023-07-31T01:20:05;146881.59;;;21.52;92.62
8280;BME280;8335;42.646;23.380;2023-07-31T01:22:58;146872.81;;;21.49;93.10
8280;BME280;8335;42.646;23.380;2023-07-31T01:28:29;146820.13;;;21.27;93.69
8280;BME280;8335;42.646;23.380;2023-07-31T01:31:00;146833.97;;;21.33;93.88
8280;BME280;8335;42.646;23.380;2023-07-31T01:33:28;146815.13;;;21.25;94.06
8280;BME280;8335;42.646;23.380;2023-07-31T01:35:56;146816.38;;;21.26;94.54
8280;BME280;8335;42.646;23.380;2023-07-31T01:38:23;146808.88;;;21.23;94.86
8280;BME280;8335;42.646;23.380;2023-07-31T01:40:52;146798.81;;;21.19;95.26
8280;BME280;8335;42.646;23.380;2023-07-31T01:43:20;146796.31;;;21.17;95.31
8280;BME280;8335;42.646;23.380;2023-07-31T01:45:47;146785.03;;;21.13;95.97
